sensor_id;sensor_type;location;lat;lon;timestamp;temperature;humidity
56771;DHT22;42641;59.794;17.616;2024-02-04T00:01:53;4.10;99.90
56771;DHT22;42641;59.794;17.616;2024-02-04T00:04:20;4.10;99.90
56771;DHT22;42641;59.794;17.616;2024-02-04T00:06:46;4.10;99.90
56771;DHT22;42641;59.794;17.616;2024-02-04T00:09:12;4.10;99.90
56771;DHT22;42641;59.794;17.616;2024-02-04T00:11:39;4.00;99.90
56771;DHT22;42641;59.794;17.616;2024-02-04T00:14:05;4.00;99.90
56771;DHT22;42641;59.794;17.616;2024-02-04T00:16:32;4.00;99.90
56771;DHT22;42641;59.794;17.616;2024-02-04T00:18:58;4.00;99.90
56771;DHT22;42641;59.794;17.616;2024-02-04T00:21:24;4.00;99.90
56771;DHT22;42641;59.794;17.616;2024-02-04T00:23:51;4.00;99.90
56771;DHT22;42641;59.794;17.616;2024-02-04T00:26:17;4.00;99.90
56771;DHT22;42641;59.794;17.616;2024-02-04T00:28:44;4.00;99.90
56771;DHT22;42641;59.794;17.616;2024-02-04T00:31:10;4.00;99.90
56771;DHT22;42641;59.794;17.616;2024-02-04T00:33:37;4.00;99.90
56771;DHT22;42641;59.794;17.616;2024-02-04T00:36:03;4.00;99.90
56771;DHT22;42641;59.794;17.616;2024-02-04T00:38:29;4.00;99.90
56771;DHT22;42641;59.794;17.616;2024-02-04T00:40:56;4.10;99.90
56771;DHT22;42641;59.794;17.616;2024-02-04T00:43:23;4.00;99.90
56771;DHT22;42641;59.794;17.616;2024-02-04T00:45:49;4.00;99.90
56771;DHT22;42641;59.794;17.616;2024-02-04T00:48:15;4.00;99.90
56771;DHT22;42641;59.794;17.616;2024-02-04T00:50:42;4.00;99.90
56771;DHT22;42641;59.794;17.616;2024-02-04T00:53:08;4.00;99.90
56771;DHT22;42641;59.794;17.616;2024-02-04T00:55:35;4.00;99.90
56771;DHT22;42641;59.794;17.616;2024-02-04T00:58:01;3.90;99.90
56771;DHT22;42641;59.794;17.616;2024-02-04T01:00:28;3.90;99.90
56771;DHT22;42641;59.794;17.616;2024-02-04T01:02:55;3.90;99.90
56771;DHT22;42641;59.794;17.616;2024-02-04T01:05:21;3.90;99.90
56771;DHT22;42641;59.794;17.616;2024-02-04T01:07:47;4.00;99.90
56771;DHT22;42641;59.794;17.616;2024-02-04T01:10:14;3.90;99.90
56771;DHT22;42641;59.794;17.616;2024-02-04T01:12:40;3.90;99.90
56771;DHT22;42641;59.794;17.616;2024-02-04T01:15:07;4.00;99.90
56771;DHT22;42641;59.794;17.616;2024-02-04T01:17:33;3.90;99.90
56771;DHT22;42641;59.794;17.616;2024-02-04T01:20:00;3.90;99.90
56771;DHT22;42641;59.794;17.616;2024-02-04T01:22:26;3.90;99.90
56771;DHT22;42641;59.794;17.616;2024-02-04T01:24:53;3.90;99.90
56771;DHT22;42641;59.794;17.616;2024-02-04T01:27:20;3.90;99.90
56771;DHT22;42641;59.794;17.616;2024-02-04T01:29:46;3.90;99.90
56771;DHT22;42641;59.794;17.616;2024-02-04T01:32:12;3.90;99.90
56771;DHT22;42641;59.794;17.616;2024-02-04T01:34:39;3.90;99.90
56771;DHT22;42641;59.794;17.616;2024-02-04T01:37:05;3.90;99.90
56771;DHT22;42641;59.794;17.616;2024-02-04T01:39:31;3.90;99.90
56771;DHT22;42641;59.794;17.616;2024-02-04T01:41:58;3.80;99.90
56771;DHT22;42641;59.794;17.616;2024-02-04T01:44:25;3.90;99.90
56771;DHT22;42641;59.794;17.616;2024-02-04T01:46:52;3.90;99.90
56771;DHT22;42641;59.794;17.616;2024-02-04T01:49:18;3.90;99.90
56771;DHT22;42641;59.794;17.616;2024-02-04T01:51:44;3.90;99.90
56771;DHT22;42641;59.794;17.616;2024-02-04T01:54:11;3.90;99.90
56771;DHT22;42641;59.794;17.616;2024-02-04T01:56:38;3.80;99.90
56771;DHT22;42641;59.794;17.616;2024-02-04T01:59:04;3.80;99.90
56771;DHT22;42641;59.794;17.616;2024-02-04T02:01:31;3.80;99.90
56771;DHT22;42641;59.794;17.616;2024-02-04T02:03:58;3.80;99.90
56771;DHT22;42641;59.794;17.616;2024-02-04T02:06:25;3.80;99.90
56771;DHT22;42641;59.794;17.616;2024-02-04T02:08:52;3.70;99.90
56771;DHT22;42641;59.794;17.616;2024-02-04T02:11:40;3.70;99.90
56771;DHT22;42641;59.794;17.616;2024-02-04T02:14:14;3.70;99.90
56771;DHT22;42641;59.794;17.616;2024-02-04T02:16:44;3.70;99.90
56771;DHT22;42641;59.794;17.616;2024-02-04T02:24:49;3.70;99.90
56771;DHT22;42641;59.794;17.616;2024-02-04T02:27:16;3.70;99.90
56771;DHT22;42641;59.794;17.616;2024-02-04T02:29:43;3.70;99.90
56771;DHT22;42641;59.794;17.616;2024-02-04T02:32:10;3.70;99.90
56771;DHT22;42641;59.794;17.616;2024-02-04T02:34:36;3.60;99.90
56771;DHT22;42641;59.794;17.616;2024-02-04T02:37:26;3.70;99.90
56771;DHT22;42641;59.794;17.616;2024-02-04T02:42:47;3.70;99.90
56771;DHT22;42641;59.794;17.616;2024-02-04T02:45:14;3.60;99.90
56771;DHT22;42641;59.794;17.616;2024-02-04T02:47:42;3.70;99.90
56771;DHT22;42641;59.794;17.616;2024-02-04T02:50:10;3.70;99.90
56771;DHT22;42641;59.794;17.616;2024-02-04T02:52:37;3.60;99.90
56771;DHT22;42641;59.794;17.616;2024-02-04T02:55:04;3.70;99.90
56771;DHT22;42641;59.794;17.616;2024-02-04T02:57:30;3.60;99.90
56771;DHT22;42641;59.794;17.616;2024-02-04T02:59:56;3.60;99.90
56771;DHT22;42641;59.794;17.616;2024-02-04T03:02:23;3.60;99.90
56771;DHT22;42641;59.794;17.616;2024-02-04T03:04:49;3.60;99.90
56771;DHT22;42641;59.794;17.616;2024-02-04T03:07:16;3.60;99.90
56771;DHT22;42641;59.794;17.616;2024-02-04T03:09:42;3.60;99.90
56771;DHT22;42641;59.794;17.616;2024-02-04T03:12:10;3.50;99.90
56771;DHT22;42641;59.794;17.616;2024-02-04T03:14:36;3.50;99.90
56771;DHT22;42641;59.794;17.616;2024-02-04T03:17:03;3.50;99.90
56771;DHT22;42641;59.794;17.616;2024-02-04T03:19:29;3.50;99.90
56771;DHT22;42641;59.794;17.616;2024-02-04T03:21:55;3.50;99.90
56771;DHT22;42641;59.794;17.616;2024-02-04T03:24:22;3.50;99.90
56771;DHT22;42641;59.794;17.616;2024-02-04T03:26:48;3.40;99.90
56771;DHT22;42641;59.794;17.616;2024-02-04T03:29:15;3.30;99.90
56771;DHT22;42641;59.794;17.616;2024-02-04T03:31:41;3.30;99.90
56771;DHT22;42641;59.794;17.616;2024-02-04T03:34:07;3.30;99.90
56771;DHT22;42641;59.794;17.616;2024-02-04T03:36:37;3.30;99.90
56771;DHT22;42641;59.794;17.616;2024-02-04T03:39:03;3.40;99.90
56771;DHT22;42641;59.794;17.616;2024-02-04T03:41:30;3.30;99.90
56771;DHT22;42641;59.794;17.616;2024-02-04T03:43:56;3.30;99.90
56771;DHT22;42641;59.794;17.616;2024-02-04T03:46:23;3.30;99.90
56771;DHT22;42641;59.794;17.616;2024-02-04T03:48:49;3.30;99.90
56771;DHT22;42641;59.794;17.616;2024-02-04T03:51:16;3.30;99.90
56771;DHT22;42641;59.794;17.616;2024-02-04T03:53:44;3.20;99.90
56771;DHT22;42641;59.794;17.616;2024-02-04T03:56:10;3.20;99.90
56771;DHT22;42641;59.794;17.616;2024-02-04T03:58:37;3.20;99.90
56771;DHT22;42641;59.794;17.616;2024-02-04T04:01:03;3.10;99.90
56771;DHT22;42641;59.794;17.616;2024-02-04T04:03:30;3.20;99.90
56771;DHT22;42641;59.794;17.616;2024-02-04T04:05:56;3.20;99.90
56771;DHT22;42641;59.794;17.616;2024-02-04T04:08:23;3.10;99.90
56771;DHT22;42641;59.794;17.616;2024-02-04T04:10:49;3.10;99.90
56771;DHT22;42641;59.794;17.616;2024-02-04T04:13:17;3.10;99.90
56771;DHT22;42641;59.794;17.616;2024-02-04T04:15:43;3.10;99.90
56771;DHT22;42641;59.794;17.616;2024-02-04T04:18:09;3.10;99.90
56771;DHT22;42641;59.794;17.616;2024-02-04T04:20:39;3.10;99.90
56771;DHT22;42641;59.794;17.616;2024-02-04T04:23:06;3.10;99.90
56771;DHT22;42641;59.794;17.616;2024-02-04T04:25:32;3.00;99.90
56771;DHT22;42641;59.794;17.616;2024-02-04T04:27:59;3.00;99.90
56771;DHT22;42641;59.794;17.616;2024-02-04T04:30:25;3.00;99.90
56771;DHT22;42641;59.794;17.616;2024-02-04T04:32:52;3.00;99.90
56771;DHT22;42641;59.794;17.616;2024-02-04T04:35:18;3.00;99.90
56771;DHT22;42641;59.794;17.616;2024-02-04T04:37:45;3.00;99.90
56771;DHT22;42641;59.794;17.616;2024-02-04T04:40:11;3.00;99.90
56771;DHT22;42641;59.794;17.616;2024-02-04T04:42:38;3.00;99.90
56771;DHT22;42641;59.794;17.616;2024-02-04T04:45:04;2.90;99.90
56771;DHT22;42641;59.794;17.616;2024-02-04T04:47:31;3.00;99.90
56771;DHT22;42641;59.794;17.616;2024-02-04T04:49:57;2.90;99.90
56771;DHT22;42641;59.794;17.616;2024-02-04T04:52:24;3.00;99.90
56771;DHT22;42641;59.794;17.616;2024-02-04T04:54:50;2.90;99.90
56771;DHT22;42641;59.794;17.616;2024-02-04T04:57:17;2.90;99.90
56771;DHT22;42641;59.794;17.616;2024-02-04T04:59:43;2.80;99.90
56771;DHT22;42641;59.794;17.616;2024-02-04T05:02:09;2.90;99.90
56771;DHT22;42641;59.794;17.616;2024-02-04T05:04:37;2.90;99.90
56771;DHT22;42641;59.794;17.616;2024-02-04T05:07:03;2.90;99.90
56771;DHT22;42641;59.794;17.616;2024-02-04T05:09:30;2.90;99.90
56771;DHT22;42641;59.794;17.616;2024-02-04T05:11:56;2.90;99.90
56771;DHT22;42641;59.794;17.616;2024-02-04T05:14:22;2.90;99.90
56771;DHT22;42641;59.794;17.616;2024-02-04T05:16:49;2.80;99.90
56771;DHT22;42641;59.794;17.616;2024-02-04T05:19:15;2.80;99.90
56771;DHT22;42641;59.794;17.616;2024-02-04T05:21:41;2.80;99.90
56771;DHT22;42641;59.794;17.616;2024-02-04T05:24:08;2.80;99.90
56771;DHT22;42641;59.794;17.616;2024-02-04T05:26:34;2.80;99.90
56771;DHT22;42641;59.794;17.616;2024-02-04T05:29:00;2.80;99.90
56771;DHT22;42641;59.794;17.616;2024-02-04T05:31:27;2.80;99.90
56771;DHT22;42641;59.794;17.616;2024-02-04T05:33:53;2.70;99.90
56771;DHT22;42641;59.794;17.616;2024-02-04T05:36:20;2.70;99.90
56771;DHT22;42641;59.794;17.616;2024-02-04T05:38:46;2.70;99.90
56771;DHT22;42641;59.794;17.616;2024-02-04T05:41:12;2.70;99.90
56771;DHT22;42641;59.794;17.616;2024-02-04T05:43:39;2.60;99.90
56771;DHT22;42641;59.794;17.616;2024-02-04T05:46:06;2.50;99.90
56771;DHT22;42641;59.794;17.616;2024-02-04T05:48:32;2.50;99.90
56771;DHT22;42641;59.794;17.616;2024-02-04T05:50:59;2.50;99.90
56771;DHT22;42641;59.794;17.616;2024-02-04T05:53:26;2.50;99.90
56771;DHT22;42641;59.794;17.616;2024-02-04T05:55:52;2.50;99.90
56771;DHT22;42641;59.794;17.616;2024-02-04T05:58:19;2.50;99.90
56771;DHT22;42641;59.794;17.616;2024-02-04T06:00:45;2.50;99.90
56771;DHT22;42641;59.794;17.616;2024-02-04T06:03:11;2.50;99.90
56771;DHT22;42641;59.794;17.616;2024-02-04T06:05:38;2.50;99.90
56771;DHT22;42641;59.794;17.616;2024-02-04T06:08:05;2.50;99.90
56771;DHT22;42641;59.794;17.616;2024-02-04T06:10:31;2.50;99.90
56771;DHT22;42641;59.794;17.616;2024-02-04T06:12:58;2.50;99.90
56771;DHT22;42641;59.794;17.616;2024-02-04T06:15:25;2.50;99.90
56771;DHT22;42641;59.794;17.616;2024-02-04T06:17:51;2.40;99.90
56771;DHT22;42641;59.794;17.616;2024-02-04T06:20:18;2.40;99.90
56771;DHT22;42641;59.794;17.616;2024-02-04T06:22:44;2.40;99.90
56771;DHT22;42641;59.794;17.616;2024-02-04T06:25:11;2.40;99.90
56771;DHT22;42641;59.794;17.616;2024-02-04T06:27:37;2.40;99.90
56771;DHT22;42641;59.794;17.616;2024-02-04T06:30:04;2.40;99.90
56771;DHT22;42641;59.794;17.616;2024-02-04T06:32:30;2.40;99.90
56771;DHT22;42641;59.794;17.616;2024-02-04T06:34:57;2.40;99.90
56771;DHT22;42641;59.794;17.616;2024-02-04T06:37:24;2.40;99.90
56771;DHT22;42641;59.794;17.616;2024-02-04T06:39:54;2.30;99.90
56771;DHT22;42641;59.794;17.616;2024-02-04T06:42:21;2.30;99.90
56771;DHT22;42641;59.794;17.616;2024-02-04T06:44:47;2.30;99.90
56771;DHT22;42641;59.794;17.616;2024-02-04T06:47:13;2.30;99.90
56771;DHT22;42641;59.794;17.616;2024-02-04T06:49:43;2.30;99.90
56771;DHT22;42641;59.794;17.616;2024-02-04T06:52:10;2.30;99.90
56771;DHT22;42641;59.794;17.616;2024-02-04T06:54:36;2.30;99.90
56771;DHT22;42641;59.794;17.616;2024-02-04T06:57:03;2.40;99.90
56771;DHT22;42641;59.794;17.616;2024-02-04T06:59:29;2.40;99.90
56771;DHT22;42641;59.794;17.616;2024-02-04T07:01:55;2.50;99.90
56771;DHT22;42641;59.794;17.616;2024-02-04T07:04:22;2.40;99.90
56771;DHT22;42641;59.794;17.616;2024-02-04T07:06:50;2.40;99.90
56771;DHT22;42641;59.794;17.616;2024-02-04T07:09:19;2.40;99.90
56771;DHT22;42641;59.794;17.616;2024-02-04T07:11:46;2.40;99.90
56771;DHT22;42641;59.794;17.616;2024-02-04T07:14:13;2.30;99.90
56771;DHT22;42641;59.794;17.616;2024-02-04T07:16:40;2.30;99.90
56771;DHT22;42641;59.794;17.616;2024-02-04T07:19:07;2.40;99.90
56771;DHT22;42641;59.794;17.616;2024-02-04T07:21:33;2.40;99.90
56771;DHT22;42641;59.794;17.616;2024-02-04T07:24:00;2.40;99.90
56771;DHT22;42641;59.794;17.616;2024-02-04T07:26:27;2.30;99.90
56771;DHT22;42641;59.794;17.616;2024-02-04T07:28:53;2.30;99.90
56771;DHT22;42641;59.794;17.616;2024-02-04T07:31:20;2.30;99.90
56771;DHT22;42641;59.794;17.616;2024-02-04T07:33:47;2.30;99.90
56771;DHT22;42641;59.794;17.616;2024-02-04T07:36:14;2.30;99.90
56771;DHT22;42641;59.794;17.616;2024-02-04T07:38:43;2.30;99.90
56771;DHT22;42641;59.794;17.616;2024-02-04T07:41:09;2.30;99.90
56771;DHT22;42641;59.794;17.616;2024-02-04T07:43:36;2.30;99.90
56771;DHT22;42641;59.794;17.616;2024-02-04T07:46:02;2.40;99.90
56771;DHT22;42641;59.794;17.616;2024-02-04T07:48:29;2.40;99.90
56771;DHT22;42641;59.794;17.616;2024-02-04T07:50:55;2.30;99.90
56771;DHT22;42641;59.794;17.616;2024-02-04T07:53:21;2.30;99.90
56771;DHT22;42641;59.794;17.616;2024-02-04T07:55:49;2.30;99.90
56771;DHT22;42641;59.794;17.616;2024-02-04T07:58:16;2.30;99.90
56771;DHT22;42641;59.794;17.616;2024-02-04T08:00:42;2.30;99.90
56771;DHT22;42641;59.794;17.616;2024-02-04T08:03:09;2.40;99.90
56771;DHT22;42641;59.794;17.616;2024-02-04T08:05:35;2.30;99.90
56771;DHT22;42641;59.794;17.616;2024-02-04T08:08:02;2.30;99.90
56771;DHT22;42641;59.794;17.616;2024-02-04T08:10:28;2.30;99.90
56771;DHT22;42641;59.794;17.616;2024-02-04T08:12:55;2.40;99.90
56771;DHT22;42641;59.794;17.616;2024-02-04T08:15:22;2.30;99.90
56771;DHT22;42641;59.794;17.616;2024-02-04T08:17:48;2.30;99.90
56771;DHT22;42641;59.794;17.616;2024-02-04T08:20:14;2.30;99.90
56771;DHT22;42641;59.794;17.616;2024-02-04T08:22:41;2.40;99.90
56771;DHT22;42641;59.794;17.616;2024-02-04T08:25:07;2.30;99.90
56771;DHT22;42641;59.794;17.616;2024-02-04T08:27:36;2.30;99.90
56771;DHT22;42641;59.794;17.616;2024-02-04T08:30:04;2.30;99.90
56771;DHT22;42641;59.794;17.616;2024-02-04T08:32:31;2.30;99.90
56771;DHT22;42641;59.794;17.616;2024-02-04T08:34:57;2.30;99.90
56771;DHT22;42641;59.794;17.616;2024-02-04T08:37:24;2.30;99.90
56771;DHT22;42641;59.794;17.616;2024-02-04T08:39:50;2.30;99.90
56771;DHT22;42641;59.794;17.616;2024-02-04T08:42:16;2.30;99.90
56771;DHT22;42641;59.794;17.616;2024-02-04T08:44:43;2.30;99.90
56771;DHT22;42641;59.794;17.616;2024-02-04T08:47:09;2.30;99.90
56771;DHT22;42641;59.794;17.616;2024-02-04T08:49:38;2.30;99.90
56771;DHT22;42641;59.794;17.616;2024-02-04T08:52:04;2.30;99.90
56771;DHT22;42641;59.794;17.616;2024-02-04T08:54:31;2.30;99.90
56771;DHT22;42641;59.794;17.616;2024-02-04T08:56:57;2.30;99.90
56771;DHT22;42641;59.794;17.616;2024-02-04T08:59:24;2.20;99.90
56771;DHT22;42641;59.794;17.616;2024-02-04T09:01:50;2.20;99.90
56771;DHT22;42641;59.794;17.616;2024-02-04T09:04:17;2.20;99.90
56771;DHT22;42641;59.794;17.616;2024-02-04T09:06:44;2.20;99.90
56771;DHT22;42641;59.794;17.616;2024-02-04T09:09:10;2.20;99.90
56771;DHT22;42641;59.794;17.616;2024-02-04T09:11:37;2.20;99.90
56771;DHT22;42641;59.794;17.616;2024-02-04T09:14:03;2.20;99.90
56771;DHT22;42641;59.794;17.616;2024-02-04T09:16:30;2.10;99.90
56771;DHT22;42641;59.794;17.616;2024-02-04T09:18:56;2.20;99.90
56771;DHT22;42641;59.794;17.616;2024-02-04T09:21:23;2.20;99.90
56771;DHT22;42641;59.794;17.616;2024-02-04T09:23:49;2.20;99.90
56771;DHT22;42641;59.794;17.616;2024-02-04T09:26:16;2.20;99.90
56771;DHT22;42641;59.794;17.616;2024-02-04T09:28:42;2.20;99.90
56771;DHT22;42641;59.794;17.616;2024-02-04T09:31:08;2.20;99.90
56771;DHT22;42641;59.794;17.616;2024-02-04T09:33:35;2.20;99.90
56771;DHT22;42641;59.794;17.616;2024-02-04T09:36:04;2.20;99.90
56771;DHT22;42641;59.794;17.616;2024-02-04T09:38:30;2.20;99.90
56771;DHT22;42641;59.794;17.616;2024-02-04T09:40:57;2.20;99.90
56771;DHT22;42641;59.794;17.616;2024-02-04T09:43:24;2.20;99.90
56771;DHT22;42641;59.794;17.616;2024-02-04T09:45:51;2.20;99.90
56771;DHT22;42641;59.794;17.616;2024-02-04T09:48:18;2.20;99.90
56771;DHT22;42641;59.794;17.616;2024-02-04T09:50:47;2.20;99.90
56771;DHT22;42641;59.794;17.616;2024-02-04T09:53:15;2.10;99.90
56771;DHT22;42641;59.794;17.616;2024-02-04T09:55:48;2.10;99.90
56771;DHT22;42641;59.794;17.616;2024-02-04T09:58:15;2.10;99.90
56771;DHT22;42641;59.794;17.616;2024-02-04T10:00:42;2.20;99.90
56771;DHT22;42641;59.794;17.616;2024-02-04T10:03:11;2.30;99.90
56771;DHT22;42641;59.794;17.616;2024-02-04T10:05:37;2.30;99.90
56771;DHT22;42641;59.794;17.616;2024-02-04T10:08:04;2.40;99.90
56771;DHT22;42641;59.794;17.616;2024-02-04T10:10:31;2.50;99.90
56771;DHT22;42641;59.794;17.616;2024-02-04T10:12:58;2.60;99.90
56771;DHT22;42641;59.794;17.616;2024-02-04T10:15:30;2.60;99.90
56771;DHT22;42641;59.794;17.616;2024-02-04T10:17:57;2.70;99.90
56771;DHT22;42641;59.794;17.616;2024-02-04T10:20:24;2.70;99.90
56771;DHT22;42641;59.794;17.616;2024-02-04T10:22:50;2.90;99.90
56771;DHT22;42641;59.794;17.616;2024-02-04T10:25:20;2.90;99.90
56771;DHT22;42641;59.794;17.616;2024-02-04T10:27:47;2.90;99.90
56771;DHT22;42641;59.794;17.616;2024-02-04T10:30:14;2.90;99.90
56771;DHT22;42641;59.794;17.616;2024-02-04T10:32:44;3.00;99.90
56771;DHT22;42641;59.794;17.616;2024-02-04T10:35:12;3.10;99.90
56771;DHT22;42641;59.794;17.616;2024-02-04T10:37:39;3.20;99.90
56771;DHT22;42641;59.794;17.616;2024-02-04T10:40:06;3.30;99.90
56771;DHT22;42641;59.794;17.616;2024-02-04T10:42:35;3.40;99.90
56771;DHT22;42641;59.794;17.616;2024-02-04T10:45:07;3.60;99.90
56771;DHT22;42641;59.794;17.616;2024-02-04T10:47:39;3.80;99.90
56771;DHT22;42641;59.794;17.616;2024-02-04T10:50:07;4.00;99.90
56771;DHT22;42641;59.794;17.616;2024-02-04T10:52:37;4.30;99.90
56771;DHT22;42641;59.794;17.616;2024-02-04T10:55:08;4.60;99.90
56771;DHT22;42641;59.794;17.616;2024-02-04T10:57:35;4.70;99.90
56771;DHT22;42641;59.794;17.616;2024-02-04T11:00:04;4.90;99.90
56771;DHT22;42641;59.794;17.616;2024-02-04T11:02:35;4.90;99.90
56771;DHT22;42641;59.794;17.616;2024-02-04T11:05:04;4.90;99.90
56771;DHT22;42641;59.794;17.616;2024-02-04T11:07:32;4.90;99.90
56771;DHT22;42641;59.794;17.616;2024-02-04T11:10:02;4.80;99.90
56771;DHT22;42641;59.794;17.616;2024-02-04T11:12:30;4.70;99.90
56771;DHT22;42641;59.794;17.616;2024-02-04T11:15:00;4.70;99.90
56771;DHT22;42641;59.794;17.616;2024-02-04T11:18:04;4.70;99.90
56771;DHT22;42641;59.794;17.616;2024-02-04T11:26:15;4.50;99.90
56771;DHT22;42641;59.794;17.616;2024-02-04T11:28:42;4.30;99.90
56771;DHT22;42641;59.794;17.616;2024-02-04T11:31:18;4.20;99.90
56771;DHT22;42641;59.794;17.616;2024-02-04T11:33:51;4.20;99.90
56771;DHT22;42641;59.794;17.616;2024-02-04T11:36:17;4.10;99.90
56771;DHT22;42641;59.794;17.616;2024-02-04T11:38:48;4.10;99.90
56771;DHT22;42641;59.794;17.616;2024-02-04T11:41:22;4.10;99.90
56771;DHT22;42641;59.794;17.616;2024-02-04T11:43:56;4.20;99.90
56771;DHT22;42641;59.794;17.616;2024-02-04T11:46:30;4.30;99.90
56771;DHT22;42641;59.794;17.616;2024-02-04T11:48:59;4.40;99.90
56771;DHT22;42641;59.794;17.616;2024-02-04T11:51:26;4.50;99.90
56771;DHT22;42641;59.794;17.616;2024-02-04T11:53:52;4.50;99.90
56771;DHT22;42641;59.794;17.616;2024-02-04T11:56:19;4.50;99.90
56771;DHT22;42641;59.794;17.616;2024-02-04T11:58:46;4.60;99.90
56771;DHT22;42641;59.794;17.616;2024-02-04T12:01:13;4.60;99.90
56771;DHT22;42641;59.794;17.616;2024-02-04T12:03:39;4.60;99.90
56771;DHT22;42641;59.794;17.616;2024-02-04T12:06:06;4.70;99.90
56771;DHT22;42641;59.794;17.616;2024-02-04T12:08:33;4.70;99.90
56771;DHT22;42641;59.794;17.616;2024-02-04T12:11:01;4.70;99.90
56771;DHT22;42641;59.794;17.616;2024-02-04T12:13:28;4.70;99.90
56771;DHT22;42641;59.794;17.616;2024-02-04T12:15:55;4.90;99.90
56771;DHT22;42641;59.794;17.616;2024-02-04T12:18:21;5.00;99.90
56771;DHT22;42641;59.794;17.616;2024-02-04T12:20:48;5.20;99.90
56771;DHT22;42641;59.794;17.616;2024-02-04T12:23:16;5.50;99.90
56771;DHT22;42641;59.794;17.616;2024-02-04T12:25:43;6.10;99.90
56771;DHT22;42641;59.794;17.616;2024-02-04T12:28:10;7.00;99.90
56771;DHT22;42641;59.794;17.616;2024-02-04T12:30:36;7.30;99.90
56771;DHT22;42641;59.794;17.616;2024-02-04T12:33:05;7.20;99.90
56771;DHT22;42641;59.794;17.616;2024-02-04T12:35:32;6.80;99.90
56771;DHT22;42641;59.794;17.616;2024-02-04T12:37:59;6.20;99.90
56771;DHT22;42641;59.794;17.616;2024-02-04T12:40:27;5.80;99.90
56771;DHT22;42641;59.794;17.616;2024-02-04T12:42:55;5.60;99.90
56771;DHT22;42641;59.794;17.616;2024-02-04T12:45:25;5.40;99.90
56771;DHT22;42641;59.794;17.616;2024-02-04T12:47:54;5.40;99.90
56771;DHT22;42641;59.794;17.616;2024-02-04T12:50:21;5.40;99.90
56771;DHT22;42641;59.794;17.616;2024-02-04T12:52:48;5.40;99.90
56771;DHT22;42641;59.794;17.616;2024-02-04T12:55:26;5.50;99.90
56771;DHT22;42641;59.794;17.616;2024-02-04T12:58:05;5.80;99.90
56771;DHT22;42641;59.794;17.616;2024-02-04T13:00:36;5.90;99.90
56771;DHT22;42641;59.794;17.616;2024-02-04T13:03:04;5.80;99.90
56771;DHT22;42641;59.794;17.616;2024-02-04T13:05:31;5.80;99.90
56771;DHT22;42641;59.794;17.616;2024-02-04T13:07:58;5.80;99.90
56771;DHT22;42641;59.794;17.616;2024-02-04T13:10:32;5.70;99.90
56771;DHT22;42641;59.794;17.616;2024-02-04T13:13:03;5.70;99.90
56771;DHT22;42641;59.794;17.616;2024-02-04T13:15:36;5.70;99.90
56771;DHT22;42641;59.794;17.616;2024-02-04T13:18:04;5.60;99.90
56771;DHT22;42641;59.794;17.616;2024-02-04T13:20:30;5.40;99.90
56771;DHT22;42641;59.794;17.616;2024-02-04T13:22:57;6.00;99.90
56771;DHT22;42641;59.794;17.616;2024-02-04T13:25:24;6.60;99.90
56771;DHT22;42641;59.794;17.616;2024-02-04T13:27:50;7.20;99.90
56771;DHT22;42641;59.794;17.616;2024-02-04T13:30:17;7.60;99.90
56771;DHT22;42641;59.794;17.616;2024-02-04T13:32:45;8.00;99.90
56771;DHT22;42641;59.794;17.616;2024-02-04T13:35:11;8.30;99.90
56771;DHT22;42641;59.794;17.616;2024-02-04T13:37:39;8.50;99.90
56771;DHT22;42641;59.794;17.616;2024-02-04T13:40:07;8.60;99.90
56771;DHT22;42641;59.794;17.616;2024-02-04T13:42:35;8.80;99.90
56771;DHT22;42641;59.794;17.616;2024-02-04T13:45:03;9.20;99.90
56771;DHT22;42641;59.794;17.616;2024-02-04T13:47:31;9.20;99.70
56771;DHT22;42641;59.794;17.616;2024-02-04T13:49:57;8.80;99.90
56771;DHT22;42641;59.794;17.616;2024-02-04T13:52:24;8.40;99.80
56771;DHT22;42641;59.794;17.616;2024-02-04T13:54:50;8.00;99.90
56771;DHT22;42641;59.794;17.616;2024-02-04T13:57:17;7.30;99.90
56771;DHT22;42641;59.794;17.616;2024-02-04T13:59:43;7.00;99.90
56771;DHT22;42641;59.794;17.616;2024-02-04T14:02:10;6.90;99.90
56771;DHT22;42641;59.794;17.616;2024-02-04T14:04:36;6.90;99.90
56771;DHT22;42641;59.794;17.616;2024-02-04T14:07:03;6.90;99.90
56771;DHT22;42641;59.794;17.616;2024-02-04T14:09:29;6.70;99.90
56771;DHT22;42641;59.794;17.616;2024-02-04T14:11:56;6.50;99.90
56771;DHT22;42641;59.794;17.616;2024-02-04T14:14:23;6.20;99.90
56771;DHT22;42641;59.794;17.616;2024-02-04T14:16:50;6.00;99.90
56771;DHT22;42641;59.794;17.616;2024-02-04T14:19:17;5.80;99.90
56771;DHT22;42641;59.794;17.616;2024-02-04T14:21:44;5.60;99.90
56771;DHT22;42641;59.794;17.616;2024-02-04T14:24:11;5.50;99.90
56771;DHT22;42641;59.794;17.616;2024-02-04T14:26:37;5.30;99.90
56771;DHT22;42641;59.794;17.616;2024-02-04T14:29:04;5.20;99.90
56771;DHT22;42641;59.794;17.616;2024-02-04T14:31:30;5.10;99.90
56771;DHT22;42641;59.794;17.616;2024-02-04T14:33:57;5.00;99.90
56771;DHT22;42641;59.794;17.616;2024-02-04T14:36:23;4.80;99.90
56771;DHT22;42641;59.794;17.616;2024-02-04T14:38:49;4.70;99.90
56771;DHT22;42641;59.794;17.616;2024-02-04T14:41:17;4.70;99.90
56771;DHT22;42641;59.794;17.616;2024-02-04T14:43:43;4.60;99.90
56771;DHT22;42641;59.794;17.616;2024-02-04T14:46:10;4.40;99.90
56771;DHT22;42641;59.794;17.616;2024-02-04T14:48:36;4.30;99.90
56771;DHT22;42641;59.794;17.616;2024-02-04T14:51:06;4.30;99.90
56771;DHT22;42641;59.794;17.616;2024-02-04T14:53:32;4.20;99.90
56771;DHT22;42641;59.794;17.616;2024-02-04T14:55:59;4.10;99.90
56771;DHT22;42641;59.794;17.616;2024-02-04T14:58:26;4.10;99.90
56771;DHT22;42641;59.794;17.616;2024-02-04T15:00:52;4.00;99.90
56771;DHT22;42641;59.794;17.616;2024-02-04T15:03:18;3.90;99.90
56771;DHT22;42641;59.794;17.616;2024-02-04T15:05:45;3.80;99.90
56771;DHT22;42641;59.794;17.616;2024-02-04T15:08:11;3.80;99.90
56771;DHT22;42641;59.794;17.616;2024-02-04T15:10:38;3.70;99.90
56771;DHT22;42641;59.794;17.616;2024-02-04T15:13:04;3.60;99.90
56771;DHT22;42641;59.794;17.616;2024-02-04T15:15:31;3.60;99.90
56771;DHT22;42641;59.794;17.616;2024-02-04T15:17:58;3.50;99.90
56771;DHT22;42641;59.794;17.616;2024-02-04T15:20:25;3.40;99.90
56771;DHT22;42641;59.794;17.616;2024-02-04T15:22:52;3.30;99.90
56771;DHT22;42641;59.794;17.616;2024-02-04T15:25:18;3.20;99.90
56771;DHT22;42641;59.794;17.616;2024-02-04T15:27:46;3.10;99.90
56771;DHT22;42641;59.794;17.616;2024-02-04T15:30:14;3.00;99.90
56771;DHT22;42641;59.794;17.616;2024-02-04T15:32:41;2.90;99.90
56771;DHT22;42641;59.794;17.616;2024-02-04T15:35:08;2.90;99.90
56771;DHT22;42641;59.794;17.616;2024-02-04T15:37:35;2.80;99.90
56771;DHT22;42641;59.794;17.616;2024-02-04T15:40:02;2.80;99.90
56771;DHT22;42641;59.794;17.616;2024-02-04T15:42:28;2.70;99.90
56771;DHT22;42641;59.794;17.616;2024-02-04T15:44:55;2.60;99.90